Terminal Aerodrome Forecast
Issued by NWS Greer, SC

Home | Current Version | Previous Version | Text Only | Print | Product List | Glossary On
Versions: 1 2 3 4 5 6 7 8 9 10 11 12 13
684
FTUS42 KGSP 301136
TAFGSP
TAF
KGSP 301136Z 3012/3112 01005KT P6SM BKN250
     FM301800 03005KT P6SM VCTS SCT060CB
     FM302100 03005KT P6SM SCT050 PROB30 3021/3024 4SM -TSRA
      BKN050CB
     FM310100 02003KT P6SM SCT080=

USA.gov is the U.S. government's official web portal to all federal, state and local government web resources and services.